Hlavní strana
METAR-TAF:

METAR-TAF

Letiště :

Esmeraldas, Ekvádor

zeměpisná šířka: 00-58-43N, zeměpisná délka: 079-37-36W, výška: 10 m

Aktuální stav počasí

Zpráva byla vytvořena před 14 hodinami a 14 minutami, v 13:00 UTC
Jižní vítr 4 kt
Teplota 25°C
Vlhkost vzduchu 100%
Tlak 1011 hPa
Viditelnost 10 km a více
Skoro jasno ve výšce 300 ft
Oblačno až skoro zataženo ve výšce 1600 ft
Zataženo ve výšce 7000 ft
přeháňky v blízkosti

METAR: SETN 071300Z 17004KT 9999 VCSH FEW003 BKN016 OVC070 25/25 Q1011 RMK A2988

Čas: 22:14 (03:14 UTC)


TAF: chybějící

Stav a předpovědi počasí z více než 4 000 letišť (zprávy METAR a TAF).

Červené a žluté tečky na mapě představují dostupné meteorologické stanice.

Když kurzor umístíte na tečku, zobrazí se název stanice.

Pak kliknutím zobrazíte stav a předpověď počasí.

Chcete-li změnit mapu, kliknutím na zelené tlačítko se znaménkem +mapu přiblížíte, kliknutím na zelené tlačítko se znaménkem – mapu oddálíte a kliknutím na zelené šipky přejdete na sousední mapy.


METAR-TAF: